Skamokawa, WA (98647)

2:49 AM PST on December 26, 2014 (GMT -0800)
Cathlamet 98612 | Change Station
CLOSE
Current Station
Personal Weather Station
Location: Cathlamet, WA
Elevation: 217 ft
Nearby Weather Stations

Elev 217 ft 46.20 °N, 123.38 °W | Updated 4 minutes ago

Overcast
Overcast
41.7 °F
Feels Like 42 °F
N
0.0
Wind Variable Wind from West

Today
High -- | Low -- °F
--% Chance of Precip.
Yesterday
High -- | Low -- °F
Precip. -- in
7:55 AM 4:33 PM
Waxing Crescent, 24% visible
Pressure 30.30 in
Visibility 10.0 miles
Clouds Mostly Cloudy 1400 ft
Overcast 3400 ft
Windchill 42 °F
Dew Point 41 °F
Humidity 99%
Rainfall 0.00 in
Snow Depth Not available.
UV 0 out of 12
Pollen .50 out of 12
Air Quality Not available.
Flu Activity Not available.
SPECI KAST 261033Z AUTO 13004KT 10SM BKN014 OVC034 06/05 A3030 RMK AO2 T00610050

More Conditions Fewer Conditions

Pressure 30.30 in
Visibility 10.0 miles
Clouds Mostly Cloudy 1400 ft
Overcast 3400 ft
Windchill 42 °F
Dew Point 41 °F
Humidity 99%
Rainfall 0.00 in
Snow Depth Not available.
UV 0 out of 12
Pollen .50 out of 12
Air Quality Not available.
Flu Activity Not available.
SPECI KAST 261033Z AUTO 13004KT 10SM BKN014 OVC034 06/05 A3030 RMK AO2 T00610050

More Conditions Fewer Conditions

10-Day Weather Forecast

Almanac

Astronomy

Dec. 26, 2014 Rise Set
Actual Time
Civil Twilight
Nautical Twilight
Astronomical Twilight
Moon
Length of Visible Light
Length of Day
Tomorrow will be .
, % of the Moon is Illuminated

Today's Extremes

State Highs State Lows

Community

WunderPhotos

Upload Photos

1,780,579 photos uploaded!

WunderBlogs® & News

Nearby

Air Quality

  Air Quality AQ Index Pollutant
Not available.

Snow Depth

Station Depth Elevation

Earthquake Activity

City Distance Mag. Time & Date
Minimum magnitude displayed is 2.5.

Coastal Water Temperatures

Place Temperature

Nearby Weather Stations